Time;durP1;ratioP1;P1;durP2;ratioP2;P2;SDS_P1;SDS_P2;PMS_P1;PMS_P2;Temp;Humidity;BMP_temperature;BMP_pressure;BME280_temperature;BME280_humidity;BME280_pressure;Samples;Min_cycle;Max_cycle;Signal;HPM_P1;HPM_P2
2024/03/24 00:01:42;;;;;;;1.27;1.00;;;6.70;99.90;;;;;;5112441;28;20251;-73
2024/03/24 00:04:07;;;;;;;2.83;1.10;;;6.80;99.90;;;;;;5112524;28;20927;-73
2024/03/24 00:06:33;;;;;;;1.47;1.10;;;6.70;99.90;;;;;;5112536;28;20632;-72
2024/03/24 00:08:58;;;;;;;1.83;1.30;;;6.60;99.90;;;;;;5112652;28;20209;-73
2024/03/24 00:11:24;;;;;;;1.57;1.07;;;6.70;99.90;;;;;;5112520;28;20159;-73
2024/03/24 00:13:49;;;;;;;1.70;1.10;;;6.80;99.90;;;;;;5112611;28;20185;-73
2024/03/24 00:16:15;;;;;;;1.00;0.90;;;6.80;99.90;;;;;;5113305;28;20190;-75
2024/03/24 00:18:40;;;;;;;1.37;1.20;;;6.80;99.90;;;;;;5115782;28;20185;-73
2024/03/24 00:21:06;;;;;;;3.07;1.37;;;6.80;99.90;;;;;;5115673;28;20163;-75
2024/03/24 00:23:32;;;;;;;1.87;0.80;;;6.60;99.90;;;;;;5115769;28;20645;-74
2024/03/24 00:25:58;;;;;;;1.20;0.93;;;6.80;99.90;;;;;;5115995;28;20428;-75
2024/03/24 00:28:23;;;;;;;2.90;1.30;;;6.80;99.90;;;;;;5115912;28;20677;-75
2024/03/24 00:30:49;;;;;;;1.97;1.03;;;6.80;99.90;;;;;;5115510;28;20175;-74
2024/03/24 00:33:14;;;;;;;1.30;0.90;;;6.80;99.90;;;;;;5115656;28;20171;-73
2024/03/24 00:35:40;;;;;;;1.37;0.93;;;6.80;99.90;;;;;;5115401;28;20293;-73
2024/03/24 00:38:05;;;;;;;2.17;1.20;;;6.80;99.90;;;;;;5115325;28;20298;-74
2024/03/24 00:40:31;;;;;;;2.80;1.03;;;6.70;99.90;;;;;;5115627;28;20221;-74
2024/03/24 00:42:56;;;;;;;2.33;1.10;;;6.70;99.90;;;;;;5096985;28;20167;-74
2024/03/24 00:45:22;;;;;;;1.30;0.90;;;6.60;99.90;;;;;;5115193;28;20164;-74
2024/03/24 00:47:51;;;;;;;2.07;1.03;;;6.60;99.90;;;;;;5115530;28;20183;-74
2024/03/24 00:50:16;;;;;;;2.10;1.10;;;6.40;99.90;;;;;;5115123;28;20493;-75
2024/03/24 00:52:43;;;;;;;1.30;0.90;;;6.50;99.90;;;;;;5115101;28;20427;-74
2024/03/24 00:55:08;;;;;;;1.57;1.00;;;6.50;99.90;;;;;;5115065;28;20663;-74
2024/03/24 00:57:34;;;;;;;1.30;1.10;;;6.40;99.90;;;;;;5114927;28;20492;-75
2024/03/24 01:00:00;;;;;;;3.00;1.10;;;6.40;99.90;;;;;;5114958;28;20178;-75
2024/03/24 01:02:26;;;;;;;1.77;1.30;;;6.30;99.90;;;;;;5114852;28;20512;-75
2024/03/24 01:04:52;;;;;;;2.17;1.20;;;6.30;99.90;;;;;;5115035;28;20220;-75
2024/03/24 01:07:17;;;;;;;4.33;1.30;;;6.40;99.90;;;;;;5115176;28;20396;-73
2024/03/24 01:09:43;;;;;;;1.20;0.80;;;6.30;99.90;;;;;;5114808;28;20186;-72
2024/03/24 01:12:08;;;;;;;1.90;1.13;;;6.40;99.90;;;;;;5096461;28;20596;-74
2024/03/24 01:14:34;;;;;;;2.50;1.30;;;6.30;99.90;;;;;;5114688;28;20230;-74
2024/03/24 01:17:00;;;;;;;1.97;1.33;;;6.50;99.90;;;;;;5114642;28;20169;-74
2024/03/24 01:19:26;;;;;;;1.10;1.00;;;6.60;99.90;;;;;;5096337;28;20311;-75
2024/03/24 01:21:52;;;;;;;1.77;1.20;;;6.70;99.90;;;;;;5114635;28;20170;-72
2024/03/24 01:24:17;;;;;;;1.20;0.90;;;6.60;99.90;;;;;;5114561;28;20764;-75
2024/03/24 01:26:43;;;;;;;2.10;1.23;;;6.60;99.90;;;;;;5096048;28;20402;-74
2024/03/24 01:29:10;;;;;;;1.50;1.00;;;6.70;99.90;;;;;;5113410;28;20742;-75
2024/03/24 01:31:35;;;;;;;1.93;1.67;;;6.70;99.90;;;;;;5114450;28;20164;-74
2024/03/24 01:34:01;;;;;;;2.17;1.30;;;6.70;99.90;;;;;;5114389;28;20774;-75
2024/03/24 01:36:26;;;;;;;2.20;0.90;;;6.80;99.90;;;;;;5079213;28;20210;-75
2024/03/24 01:38:52;;;;;;;1.10;0.87;;;6.70;99.90;;;;;;5114256;28;20682;-75
2024/03/24 01:41:18;;;;;;;3.67;1.13;;;6.60;99.90;;;;;;5114632;28;20234;-76
2024/03/24 01:43:43;;;;;;;2.57;1.30;;;6.50;99.90;;;;;;5114481;28;20187;-74
2024/03/24 01:46:09;;;;;;;1.20;0.90;;;6.50;99.90;;;;;;5114334;28;20164;-75
2024/03/24 01:48:35;;;;;;;1.30;1.03;;;6.30;99.90;;;;;;5114506;28;20198;-75
2024/03/24 01:51:08;;;;;;;1.10;1.00;;;6.30;99.90;;;;;;5114381;28;20410;-73
2024/03/24 01:53:36;;;;;;;1.40;1.00;;;6.50;99.90;;;;;;5114804;28;20163;-75
2024/03/24 01:56:02;;;;;;;1.00;0.80;;;6.50;99.90;;;;;;5113970;28;20822;-75
2024/03/24 01:58:30;;;;;;;1.17;1.00;;;6.70;99.90;;;;;;5114121;28;20434;-75
2024/03/24 02:00:55;;;;;;;1.20;1.10;;;6.80;99.90;;;;;;5114143;28;20213;-73
2024/03/24 02:03:21;;;;;;;1.23;1.00;;;6.70;99.90;;;;;;5114302;28;20402;-75
2024/03/24 02:05:47;;;;;;;1.00;0.90;;;6.70;99.90;;;;;;5113781;28;20198;-73
2024/03/24 02:08:12;;;;;;;1.77;1.10;;;6.50;99.90;;;;;;5113666;28;20289;-74
2024/03/24 02:10:38;;;;;;;1.40;0.97;;;6.40;99.90;;;;;;5113748;28;20228;-73
2024/03/24 02:13:03;;;;;;;1.13;1.00;;;6.40;99.90;;;;;;5113661;28;20170;-74
2024/03/24 02:15:29;;;;;;;1.57;1.13;;;6.40;99.90;;;;;;5113475;28;20203;-72
2024/03/24 02:17:54;;;;;;;1.30;0.83;;;6.40;99.90;;;;;;5113462;28;20289;-73
2024/03/24 02:20:20;;;;;;;2.70;1.07;;;6.30;99.90;;;;;;5113421;28;20263;-73
2024/03/24 02:22:45;;;;;;;3.57;0.90;;;6.30;99.90;;;;;;5113503;28;20179;-73
2024/03/24 02:25:11;;;;;;;1.40;0.87;;;6.60;99.90;;;;;;5113472;28;20179;-73
2024/03/24 02:27:36;;;;;;;1.70;1.13;;;6.40;99.90;;;;;;5113330;28;20545;-72
2024/03/24 02:30:03;;;;;;;1.03;0.77;;;6.50;99.90;;;;;;5113535;28;20652;-74
2024/03/24 02:32:29;;;;;;;3.23;1.00;;;6.50;99.90;;;;;;5113632;28;20240;-75
2024/03/24 02:34:54;;;;;;;1.63;0.97;;;6.50;99.90;;;;;;5113554;28;20482;-74
2024/03/24 02:37:20;;;;;;;1.67;0.80;;;6.60;99.90;;;;;;5113471;28;20181;-74
2024/03/24 02:39:45;;;;;;;1.70;0.90;;;6.40;99.90;;;;;;5112587;28;20210;-72
2024/03/24 02:42:11;;;;;;;4.10;0.80;;;6.50;99.90;;;;;;5113391;28;20174;-74
2024/03/24 02:44:37;;;;;;;1.10;0.80;;;6.60;99.90;;;;;;5113090;28;20516;-75
2024/03/24 02:47:03;;;;;;;2.60;0.90;;;6.60;99.90;;;;;;5113074;28;20178;-73
2024/03/24 02:49:29;;;;;;;1.40;0.90;;;6.50;99.90;;;;;;5112900;28;20419;-73
2024/03/24 02:51:54;;;;;;;1.53;1.13;;;6.50;99.90;;;;;;5112834;28;20523;-74
2024/03/24 02:54:20;;;;;;;2.40;1.00;;;6.40;99.90;;;;;;5112909;28;20209;-73
2024/03/24 02:56:45;;;;;;;1.00;0.80;;;6.50;99.90;;;;;;5112941;28;20217;-74
2024/03/24 02:59:11;;;;;;;1.53;1.00;;;6.40;99.90;;;;;;5113089;28;20201;-73
2024/03/24 03:01:37;;;;;;;1.30;0.80;;;6.40;99.90;;;;;;5112852;28;20189;-74
2024/03/24 03:04:03;;;;;;;1.63;0.97;;;6.30;99.90;;;;;;5112773;28;20164;-74
2024/03/24 03:06:29;;;;;;;1.63;0.73;;;6.30;99.90;;;;;;5112950;28;20186;-74
2024/03/24 03:08:55;;;;;;;1.33;0.90;;;6.30;99.90;;;;;;5112733;28;20944;-72
2024/03/24 03:11:20;;;;;;;0.70;0.70;;;6.20;99.90;;;;;;5112669;28;20235;-74
2024/03/24 03:13:46;;;;;;;0.97;0.70;;;6.30;99.90;;;;;;5112960;28;20165;-74
2024/03/24 03:16:11;;;;;;;1.10;0.70;;;6.30;99.90;;;;;;5112756;28;20214;-74
2024/03/24 03:18:37;;;;;;;4.70;1.37;;;6.30;99.90;;;;;;5112700;28;20268;-75
2024/03/24 03:21:02;;;;;;;1.80;0.80;;;6.20;99.90;;;;;;5113214;28;20166;-75
2024/03/24 03:23:28;;;;;;;1.83;1.03;;;6.20;99.90;;;;;;5112976;28;20167;-74
2024/03/24 03:25:53;;;;;;;1.30;0.90;;;6.10;99.90;;;;;;5112679;28;20182;-74
2024/03/24 03:28:19;;;;;;;0.97;0.87;;;6.10;99.90;;;;;;5112651;28;20576;-73
2024/03/24 03:30:45;;;;;;;1.33;0.90;;;6.10;99.90;;;;;;5112661;28;20174;-73
2024/03/24 03:33:10;;;;;;;2.03;0.90;;;6.10;99.90;;;;;;5112634;28;20186;-74
2024/03/24 03:35:36;;;;;;;1.30;1.00;;;6.20;99.90;;;;;;5112522;28;20691;-73
2024/03/24 03:38:01;;;;;;;1.20;0.90;;;6.30;99.90;;;;;;5112419;28;20696;-74
2024/03/24 03:40:27;;;;;;;2.40;1.00;;;6.10;99.90;;;;;;5112536;28;20572;-72
2024/03/24 03:42:52;;;;;;;1.53;1.10;;;6.20;99.90;;;;;;5112483;28;20163;-74
2024/03/24 03:45:18;;;;;;;2.20;0.80;;;6.10;99.90;;;;;;5112445;28;20170;-74
2024/03/24 03:47:44;;;;;;;2.50;1.07;;;6.30;99.90;;;;;;5112313;28;20178;-73
2024/03/24 03:50:16;;;;;;;1.33;0.90;;;6.50;99.90;;;;;;5112411;28;20401;-75
2024/03/24 03:52:47;;;;;;;1.00;0.70;;;6.60;99.90;;;;;;5115976;28;20153;-73
2024/03/24 03:55:16;;;;;;;2.57;0.90;;;6.60;99.90;;;;;;5116692;28;20445;-73
2024/03/24 03:57:43;;;;;;;2.10;0.80;;;6.60;99.90;;;;;;5116080;28;20988;-72
2024/03/24 04:00:12;;;;;;;1.03;0.60;;;6.70;99.90;;;;;;5116218;28;20401;-74
2024/03/24 04:02:38;;;;;;;2.07;0.80;;;6.70;99.90;;;;;;5116210;28;20497;-74
2024/03/24 04:05:07;;;;;;;0.80;0.67;;;6.70;99.90;;;;;;5116233;28;20406;-72
2024/03/24 04:07:36;;;;;;;0.80;0.67;;;6.70;99.90;;;;;;5116414;28;20406;-73
2024/03/24 04:10:02;;;;;;;1.43;0.70;;;6.60;99.90;;;;;;5115999;28;20413;-72
2024/03/24 04:12:29;;;;;;;0.80;0.60;;;6.60;99.90;;;;;;5116109;28;20411;-74
2024/03/24 04:14:54;;;;;;;1.97;0.90;;;6.60;99.90;;;;;;5115945;28;20837;-73
2024/03/24 04:17:20;;;;;;;1.67;0.70;;;6.40;99.90;;;;;;5115986;28;20418;-74
2024/03/24 04:19:46;;;;;;;2.40;0.70;;;6.40;99.90;;;;;;5115917;28;20194;-73
2024/03/24 04:22:12;;;;;;;2.30;0.73;;;6.40;99.90;;;;;;5116113;28;20496;-74
2024/03/24 04:24:37;;;;;;;1.23;0.70;;;6.30;99.90;;;;;;5115816;28;20179;-73
2024/03/24 04:27:03;;;;;;;1.10;0.70;;;6.30;99.90;;;;;;5115735;28;20177;-74
2024/03/24 04:29:29;;;;;;;1.10;0.70;;;6.20;99.90;;;;;;5115911;28;20713;-74
2024/03/24 04:31:54;;;;;;;1.20;0.70;;;6.40;99.90;;;;;;5115566;28;20248;-74
2024/03/24 04:34:20;;;;;;;1.50;0.80;;;6.10;99.90;;;;;;5115593;28;20180;-73
2024/03/24 04:36:45;;;;;;;2.50;1.00;;;6.30;99.90;;;;;;5115534;28;20177;-72
2024/03/24 04:39:12;;;;;;;1.67;0.60;;;6.10;99.90;;;;;;5115370;28;20198;-74
2024/03/24 04:41:39;;;;;;;1.20;0.70;;;6.10;99.90;;;;;;5115565;28;20167;-73
2024/03/24 04:44:06;;;;;;;1.67;1.07;;;6.20;99.90;;;;;;5115487;28;20413;-74
2024/03/24 04:46:31;;;;;;;1.00;0.70;;;6.30;99.90;;;;;;5115243;28;20956;-72
2024/03/24 04:48:57;;;;;;;1.83;0.93;;;6.10;99.90;;;;;;5115157;28;20437;-75
2024/03/24 04:51:22;;;;;;;0.80;0.70;;;6.00;99.90;;;;;;5105869;28;20182;-74
2024/03/24 04:53:48;;;;;;;1.83;0.83;;;5.90;99.90;;;;;;5094855;28;20216;-75
2024/03/24 04:56:14;;;;;;;1.73;0.90;;;5.90;99.90;;;;;;5094759;28;20265;-73
2024/03/24 04:58:39;;;;;;;1.43;0.87;;;6.00;99.90;;;;;;5094740;28;20698;-74
2024/03/24 05:01:05;;;;;;;1.40;0.80;;;6.10;99.90;;;;;;5094805;28;20206;-74
2024/03/24 05:03:30;;;;;;;1.10;0.80;;;6.40;99.90;;;;;;5094316;28;20167;-75
2024/03/24 05:05:56;;;;;;;1.00;0.80;;;6.30;99.90;;;;;;5094632;28;20175;-73
2024/03/24 05:08:21;;;;;;;1.57;0.67;;;6.30;99.90;;;;;;5094666;28;20568;-74
2024/03/24 05:10:47;;;;;;;1.00;0.90;;;6.30;99.90;;;;;;5094477;28;20187;-74
2024/03/24 05:13:12;;;;;;;2.23;1.00;;;5.90;99.90;;;;;;5094288;28;20578;-74
2024/03/24 05:15:39;;;;;;;1.10;0.67;;;6.10;99.90;;;;;;5094002;28;20223;-74
2024/03/24 05:18:08;;;;;;;1.70;0.87;;;6.20;99.90;;;;;;5094041;28;20436;-73
2024/03/24 05:20:37;;;;;;;2.60;0.90;;;6.10;99.90;;;;;;5094355;28;20597;-74
2024/03/24 05:23:03;;;;;;;0.90;0.80;;;5.90;99.90;;;;;;5094120;28;20940;-74
2024/03/24 05:25:29;;;;;;;1.70;0.90;;;6.00;99.90;;;;;;5094222;28;20410;-73
2024/03/24 05:27:55;;;;;;;1.00;0.90;;;6.00;99.90;;;;;;5094267;28;20809;-75
2024/03/24 05:30:21;;;;;;;1.17;1.07;;;6.00;99.90;;;;;;5094725;28;20410;-74
2024/03/24 05:32:46;;;;;;;2.10;0.90;;;6.00;99.90;;;;;;5094812;28;20178;-74
2024/03/24 05:35:13;;;;;;;1.20;0.80;;;6.00;99.90;;;;;;5094527;28;20282;-74
2024/03/24 05:37:38;;;;;;;1.77;1.10;;;6.10;99.90;;;;;;5095126;28;20344;-74
2024/03/24 05:40:05;;;;;;;3.53;2.17;;;6.10;99.90;;;;;;5099910;28;20634;-76
2024/03/24 05:42:30;;;;;;;81.07;39.50;;;6.10;99.90;;;;;;5098888;28;20184;-74
2024/03/24 05:44:56;;;;;;;152.27;79.33;;;6.30;99.90;;;;;;5094603;28;20752;-75
2024/03/24 05:47:21;;;;;;;74.20;35.03;;;6.30;99.90;;;;;;5094862;28;20173;-74
2024/03/24 05:49:49;;;;;;;25.80;13.60;;;6.20;99.90;;;;;;5094450;28;20192;-73
2024/03/24 05:52:14;;;;;;;17.20;10.63;;;6.00;99.90;;;;;;5094089;28;20170;-75
2024/03/24 05:54:40;;;;;;;41.83;25.30;;;5.90;99.90;;;;;;5093753;28;20543;-76
2024/03/24 05:57:05;;;;;;;28.70;16.63;;;6.10;99.90;;;;;;5093789;28;20171;-74
2024/03/24 05:59:31;;;;;;;61.20;36.93;;;6.20;99.90;;;;;;5093616;28;20196;-74
2024/03/24 06:01:56;;;;;;;11.00;7.30;;;6.30;99.90;;;;;;5093584;28;20202;-74
2024/03/24 06:04:22;;;;;;;4.30;3.43;;;6.30;99.90;;;;;;5093472;28;20168;-74
2024/03/24 06:06:48;;;;;;;6.10;3.70;;;6.20;99.90;;;;;;5093434;28;20541;-74
2024/03/24 06:09:13;;;;;;;4.53;3.50;;;6.40;99.90;;;;;;5093319;28;20584;-74
2024/03/24 06:11:39;;;;;;;3.30;2.90;;;6.50;99.90;;;;;;5093282;28;20669;-73
2024/03/24 06:14:05;;;;;;;2.50;1.43;;;6.40;99.90;;;;;;5092622;28;20203;-74
2024/03/24 06:16:30;;;;;;;1.30;0.80;;;6.20;99.90;;;;;;5093091;28;20203;-73
2024/03/24 06:18:56;;;;;;;1.23;0.97;;;6.10;99.90;;;;;;5093244;28;20198;-72
2024/03/24 06:21:21;;;;;;;1.70;1.60;;;6.20;99.90;;;;;;5093156;28;20166;-74
2024/03/24 06:23:51;;;;;;;1.20;0.90;;;6.40;99.90;;;;;;5092990;28;20166;-73
2024/03/24 06:26:17;;;;;;;2.40;2.10;;;6.40;99.90;;;;;;5078669;28;20187;-74
2024/03/24 06:28:42;;;;;;;0.97;0.80;;;6.40;99.90;;;;;;5074566;28;20853;-76
2024/03/24 06:31:08;;;;;;;1.67;1.10;;;6.20;99.90;;;;;;5075270;28;20195;-75
2024/03/24 06:33:34;;;;;;;1.30;1.20;;;6.30;99.90;;;;;;5077997;28;20188;-75
2024/03/24 06:35:59;;;;;;;2.20;2.00;;;6.30;99.90;;;;;;5072028;28;20592;-74
2024/03/24 06:38:27;;;;;;;1.60;1.20;;;6.30;99.90;;;;;;5071747;28;20211;-74
2024/03/24 06:40:53;;;;;;;4.37;1.20;;;6.20;99.90;;;;;;5069993;28;20168;-75
2024/03/24 06:43:23;;;;;;;1.90;1.60;;;6.30;99.90;;;;;;5078000;28;20467;-76
2024/03/24 06:45:49;;;;;;;1.77;1.33;;;6.30;99.90;;;;;;5072186;28;20187;-75
2024/03/24 06:48:15;;;;;;;1.97;1.80;;;6.20;99.90;;;;;;5073415;28;20443;-74
2024/03/24 06:50:40;;;;;;;2.80;1.50;;;6.40;99.90;;;;;;5073176;28;20455;-76
2024/03/24 06:53:06;;;;;;;1.67;0.90;;;6.50;99.90;;;;;;5073921;28;20859;-73
2024/03/24 06:55:32;;;;;;;1.30;1.20;;;6.50;99.90;;;;;;5072565;28;20268;-74
2024/03/24 06:57:57;;;;;;;1.97;1.20;;;6.70;99.90;;;;;;5067225;28;20891;-74
2024/03/24 07:00:23;;;;;;;1.30;0.80;;;6.80;99.90;;;;;;5071730;28;20248;-74
2024/03/24 07:02:49;;;;;;;2.80;1.10;;;6.80;99.90;;;;;;5073960;28;20188;-73
2024/03/24 07:05:15;;;;;;;2.33;1.10;;;6.70;99.90;;;;;;5080534;28;20188;-75
2024/03/24 07:07:44;;;;;;;2.67;1.13;;;6.80;99.90;;;;;;5055475;28;20828;-73
2024/03/24 07:10:10;;;;;;;2.60;1.20;;;6.70;99.90;;;;;;5072317;28;20972;-74
2024/03/24 07:12:36;;;;;;;1.27;0.90;;;6.80;99.90;;;;;;5072613;28;20502;-74
2024/03/24 07:15:02;;;;;;;4.13;1.10;;;6.80;99.90;;;;;;5072201;28;20538;-75
2024/03/24 07:17:28;;;;;;;1.20;1.07;;;6.80;99.90;;;;;;5072165;28;20176;-74
2024/03/24 07:19:53;;;;;;;3.73;1.10;;;6.90;99.90;;;;;;5072089;28;20999;-73
2024/03/24 07:22:19;;;;;;;2.37;1.10;;;6.90;99.90;;;;;;5072128;28;20173;-74
2024/03/24 07:24:44;;;;;;;2.90;1.10;;;7.00;99.90;;;;;;5072386;28;20172;-75
2024/03/24 07:27:10;;;;;;;1.30;1.20;;;6.80;99.90;;;;;;5076488;28;20180;-75
2024/03/24 07:29:36;;;;;;;1.70;1.23;;;6.90;99.90;;;;;;5076275;28;20203;-73
2024/03/24 07:32:02;;;;;;;2.37;1.17;;;6.80;99.90;;;;;;5076560;28;20182;-75
2024/03/24 07:34:28;;;;;;;2.00;1.13;;;7.10;99.90;;;;;;5076273;28;20206;-74
2024/03/24 07:36:53;;;;;;;1.80;1.47;;;7.00;99.90;;;;;;5076091;28;20502;-74
2024/03/24 07:39:19;;;;;;;1.40;1.00;;;7.00;99.90;;;;;;5075860;28;20946;-74
2024/03/24 07:41:45;;;;;;;1.53;1.20;;;6.90;99.90;;;;;;5058281;28;20190;-74
2024/03/24 07:44:10;;;;;;;1.50;1.40;;;6.90;99.90;;;;;;5076078;28;20403;-74
2024/03/24 07:46:36;;;;;;;1.57;1.10;;;7.00;99.90;;;;;;5076259;28;20616;-73
2024/03/24 07:49:01;;;;;;;2.17;1.20;;;7.00;99.90;;;;;;5075716;28;20199;-73
2024/03/24 07:51:28;;;;;;;2.20;1.30;;;7.10;99.90;;;;;;5075824;28;20197;-73
2024/03/24 07:53:54;;;;;;;1.90;1.47;;;7.10;99.90;;;;;;5076099;28;20287;-74
2024/03/24 07:56:19;;;;;;;2.67;1.37;;;7.10;99.90;;;;;;5075943;28;20815;-74
2024/03/24 07:58:45;;;;;;;5.90;1.50;;;7.20;99.90;;;;;;5075497;28;20182;-73
2024/03/24 08:01:10;;;;;;;2.43;1.17;;;7.40;99.90;;;;;;5075612;28;20585;-74
2024/03/24 08:03:36;;;;;;;2.20;1.30;;;7.40;99.90;;;;;;5075688;28;20165;-74
2024/03/24 08:06:01;;;;;;;1.83;1.00;;;7.40;99.90;;;;;;5076141;28;20550;-75
2024/03/24 08:08:27;;;;;;;2.10;1.50;;;7.40;99.90;;;;;;5075613;28;20191;-76
2024/03/24 08:10:54;;;;;;;2.03;1.20;;;7.30;99.90;;;;;;5075574;28;20184;-76
2024/03/24 08:13:19;;;;;;;1.70;0.97;;;7.30;99.90;;;;;;5075456;28;20257;-75
2024/03/24 08:15:45;;;;;;;3.30;1.43;;;7.40;99.90;;;;;;5075469;28;20490;-76
2024/03/24 08:18:11;;;;;;;3.20;1.40;;;7.50;99.90;;;;;;5075661;28;20194;-74
2024/03/24 08:20:44;;;;;;;1.80;1.30;;;7.40;99.90;;;;;;5075355;28;20650;-75
2024/03/24 08:23:09;;;;;;;1.17;0.97;;;7.50;99.90;;;;;;5075283;28;20904;-75
2024/03/24 08:25:35;;;;;;;6.30;1.63;;;7.70;99.90;;;;;;5075410;28;20502;-75
2024/03/24 08:28:00;;;;;;;1.40;1.10;;;7.70;99.90;;;;;;5074974;28;20311;-76
2024/03/24 08:30:26;;;;;;;2.20;1.30;;;7.80;99.90;;;;;;5075335;28;20425;-78
2024/03/24 08:32:52;;;;;;;1.43;1.10;;;7.90;99.90;;;;;;5075771;28;20173;-78
2024/03/24 08:35:18;;;;;;;1.53;1.27;;;8.00;99.90;;;;;;5075317;28;20451;-76
2024/03/24 08:37:48;;;;;;;1.53;1.10;;;8.40;99.90;;;;;;5076409;28;20213;-77
2024/03/24 08:40:14;;;;;;;2.20;1.03;;;8.60;99.90;;;;;;5075192;28;20164;-77
2024/03/24 08:42:40;;;;;;;1.13;0.80;;;8.80;99.90;;;;;;5075921;28;20393;-77
2024/03/24 08:45:06;;;;;;;2.00;1.30;;;8.60;99.90;;;;;;5076424;28;20170;-77
2024/03/24 08:47:31;;;;;;;1.40;1.07;;;8.80;99.90;;;;;;5058147;28;20176;-77
2024/03/24 08:49:57;;;;;;;2.67;1.30;;;8.90;99.90;;;;;;5075640;28;20426;-75
2024/03/24 08:52:22;;;;;;;1.97;1.40;;;9.00;99.90;;;;;;5077164;28;20220;-78
2024/03/24 08:54:48;;;;;;;2.20;1.20;;;8.70;99.90;;;;;;5077153;28;20198;-78
2024/03/24 08:57:13;;;;;;;4.10;1.20;;;8.70;99.90;;;;;;5077131;28;20164;-78
2024/03/24 08:59:39;;;;;;;1.77;1.30;;;8.70;99.90;;;;;;5079844;28;20602;-78
2024/03/24 09:02:05;;;;;;;2.40;1.43;;;8.60;99.90;;;;;;5090399;28;20161;-78
2024/03/24 09:04:31;;;;;;;4.10;1.40;;;8.70;99.90;;;;;;5086460;28;20195;-77
2024/03/24 09:06:56;;;;;;;3.00;1.40;;;8.90;99.90;;;;;;5077726;28;20454;-77
2024/03/24 09:09:22;;;;;;;5.23;1.83;;;8.80;99.90;;;;;;5075703;28;20246;-77
2024/03/24 09:11:48;;;;;;;1.97;1.27;;;8.60;99.90;;;;;;5076164;28;20168;-77
2024/03/24 09:14:14;;;;;;;2.10;1.53;;;8.40;99.90;;;;;;5077031;28;20171;-78
2024/03/24 09:16:39;;;;;;;3.67;1.57;;;8.40;99.90;;;;;;5077727;28;20484;-77
2024/03/24 09:19:05;;;;;;;5.70;1.67;;;8.50;99.90;;;;;;5077147;28;20211;-77
2024/03/24 09:21:30;;;;;;;5.43;1.83;;;8.40;99.90;;;;;;5059407;28;20174;-78
2024/03/24 09:23:56;;;;;;;5.07;1.90;;;8.40;99.90;;;;;;5078045;28;20228;-78
2024/03/24 09:26:21;;;;;;;6.30;2.20;;;8.40;99.90;;;;;;5061248;28;20181;-77
2024/03/24 09:28:47;;;;;;;2.27;1.77;;;8.40;99.90;;;;;;5077298;28;20528;-78
2024/03/24 09:31:13;;;;;;;2.83;2.10;;;8.30;99.90;;;;;;5076913;28;20288;-79
2024/03/24 09:33:39;;;;;;;3.97;1.97;;;8.60;99.90;;;;;;5058498;28;20180;-77
2024/03/24 09:36:04;;;;;;;3.63;2.40;;;8.80;99.90;;;;;;5074260;28;20451;-76
2024/03/24 09:38:30;;;;;;;4.00;2.03;;;8.80;99.90;;;;;;5074096;28;20561;-78
2024/03/24 09:40:56;;;;;;;4.40;1.80;;;8.60;99.90;;;;;;5074808;28;20175;-78
2024/03/24 09:43:22;;;;;;;2.13;1.90;;;8.80;99.90;;;;;;5074072;28;20171;-77
2024/03/24 09:45:48;;;;;;;3.03;1.87;;;8.90;99.90;;;;;;5074677;28;20178;-77
2024/03/24 09:48:16;;;;;;;3.10;2.07;;;8.80;99.90;;;;;;5055010;28;20441;-79
2024/03/24 09:50:42;;;;;;;3.40;2.00;;;8.60;99.90;;;;;;5073806;28;20412;-76
2024/03/24 09:53:11;;;;;;;3.27;2.10;;;8.70;99.90;;;;;;5074370;28;20446;-77
2024/03/24 09:55:38;;;;;;;3.07;2.20;;;8.80;99.90;;;;;;5074314;28;20449;-77
2024/03/24 09:58:04;;;;;;;2.60;2.40;;;8.90;99.90;;;;;;5056364;28;20435;-77
2024/03/24 10:00:29;;;;;;;4.93;2.27;;;8.60;99.90;;;;;;5074163;28;20545;-77
2024/03/24 10:02:55;;;;;;;2.90;1.90;;;8.60;99.90;;;;;;5074346;28;20826;-77
2024/03/24 10:05:22;;;;;;;4.93;2.50;;;8.60;99.90;;;;;;5056327;28;20181;-78
2024/03/24 10:07:48;;;;;;;3.43;2.40;;;8.80;99.90;;;;;;5074493;28;20219;-78
2024/03/24 10:10:20;;;;;;;4.10;2.00;;;9.00;99.90;;;;;;5133605;27;20520;-78
2024/03/24 10:12:53;;;;;;;4.37;1.97;;;8.90;99.90;;;;;;5132324;28;20958;-79
2024/03/24 10:15:24;;;;;;;3.40;1.87;;;9.00;99.90;;;;;;5132855;28;20662;-77
2024/03/24 10:18:06;;;;;;;4.70;2.00;;;8.90;99.90;;;;;;5133306;27;20410;-79
2024/03/24 10:20:33;;;;;;;3.67;2.00;;;8.70;99.90;;;;;;5132233;28;20383;-77
2024/03/24 10:22:59;;;;;;;3.23;2.30;;;8.80;99.90;;;;;;5131250;28;20419;-78
2024/03/24 10:25:27;;;;;;;3.13;2.00;;;8.70;99.90;;;;;;5131155;28;20424;-76
2024/03/24 10:27:54;;;;;;;4.90;2.67;;;8.90;99.90;;;;;;5130768;27;20821;-76
2024/03/24 10:30:19;;;;;;;4.87;1.87;;;9.10;99.90;;;;;;5131335;28;20897;-79
2024/03/24 10:32:45;;;;;;;4.30;1.63;;;9.20;99.90;;;;;;5131271;28;20496;-77
2024/03/24 10:35:11;;;;;;;3.67;2.33;;;9.10;99.90;;;;;;5131097;28;20164;-78
2024/03/24 10:37:38;;;;;;;3.70;2.20;;;8.90;99.90;;;;;;5130465;27;21035;-77
2024/03/24 10:40:04;;;;;;;5.10;2.60;;;8.80;99.90;;;;;;5130628;28;20406;-76
2024/03/24 10:42:32;;;;;;;4.33;1.90;;;9.00;99.90;;;;;;5131202;28;20485;-78
2024/03/24 10:45:03;;;;;;;4.17;2.00;;;9.50;99.90;;;;;;5130851;28;20815;-77
2024/03/24 10:47:32;;;;;;;4.10;2.50;;;9.70;99.90;;;;;;5131011;28;20600;-78
2024/03/24 10:49:58;;;;;;;4.37;2.27;;;9.70;99.90;;;;;;5130726;27;20447;-77
2024/03/24 10:52:29;;;;;;;4.27;2.43;;;9.70;99.90;;;;;;5131849;28;20424;-78
2024/03/24 10:54:56;;;;;;;2.70;1.83;;;9.80;99.90;;;;;;5132649;28;20382;-78
2024/03/24 10:57:26;;;;;;;4.17;2.20;;;9.80;99.90;;;;;;5132455;28;20922;-77
2024/03/24 10:59:53;;;;;;;3.80;1.80;;;10.00;99.90;;;;;;5131977;27;20867;-77
2024/03/24 11:02:20;;;;;;;6.33;2.00;;;10.00;99.90;;;;;;5122858;28;20405;-78
2024/03/24 11:04:47;;;;;;;4.40;2.30;;;10.00;99.90;;;;;;5119785;28;20422;-78
2024/03/24 11:07:14;;;;;;;2.10;1.50;;;10.20;99.90;;;;;;5120451;28;20554;-78
2024/03/24 11:09:40;;;;;;;4.07;2.50;;;10.30;99.90;;;;;;5121397;28;20470;-77
2024/03/24 11:12:07;;;;;;;2.70;1.80;;;10.20;99.90;;;;;;5121460;28;20405;-78
2024/03/24 11:14:33;;;;;;;3.07;2.10;;;10.30;99.90;;;;;;5120883;28;20445;-77
2024/03/24 11:16:59;;;;;;;2.67;1.80;;;10.30;99.90;;;;;;5121291;28;20434;-79
2024/03/24 11:19:28;;;;;;;4.30;2.17;;;10.30;99.90;;;;;;5121796;27;20471;-78
2024/03/24 11:21:54;;;;;;;5.57;2.70;;;10.50;99.90;;;;;;5119169;28;20175;-77
2024/03/24 11:24:28;;;;;;;1.93;1.70;;;10.10;99.90;;;;;;5119615;28;20402;-79
2024/03/24 11:26:57;;;;;;;3.10;2.10;;;10.30;99.90;;;;;;5119282;28;20392;-79
2024/03/24 11:29:50;;;;;;;2.63;2.33;;;10.20;99.90;;;;;;5120361;28;20456;-79
2024/03/24 11:32:19;;;;;;;4.07;2.30;;;10.10;99.90;;;;;;5116665;28;20412;-77
2024/03/24 11:34:55;;;;;;;5.70;3.53;;;9.60;99.90;;;;;;5116103;28;20393;-77
2024/03/24 11:37:27;;;;;;;3.33;1.90;;;9.40;99.90;;;;;;5116588;28;20398;-77
2024/03/24 11:39:54;;;;;;;2.97;1.87;;;9.30;99.90;;;;;;5117685;28;20450;-76
2024/03/24 11:42:28;;;;;;;5.10;2.33;;;9.30;99.90;;;;;;5116436;28;20979;-77
2024/03/24 11:44:53;;;;;;;3.83;1.83;;;9.30;99.90;;;;;;5116422;28;20889;-77
2024/03/24 11:47:20;;;;;;;2.80;1.63;;;9.80;99.90;;;;;;5117453;28;20397;-78
2024/03/24 11:49:49;;;;;;;4.10;2.17;;;10.30;99.90;;;;;;5115840;28;20191;-77
2024/03/24 11:52:16;;;;;;;3.37;1.90;;;10.20;99.90;;;;;;5115005;28;20416;-78
2024/03/24 11:54:46;;;;;;;4.80;2.07;;;10.10;99.90;;;;;;5116363;28;20399;-76
2024/03/24 11:57:11;;;;;;;2.80;1.90;;;10.30;99.90;;;;;;5116282;28;20409;-77
2024/03/24 11:59:38;;;;;;;4.20;2.10;;;10.20;99.90;;;;;;5115839;28;20870;-77
2024/03/24 12:02:04;;;;;;;3.87;1.97;;;10.40;99.90;;;;;;5116154;28;20650;-78
2024/03/24 12:04:29;;;;;;;5.23;2.03;;;10.90;99.90;;;;;;5114604;28;20455;-78
2024/03/24 12:06:55;;;;;;;2.20;1.80;;;10.90;99.90;;;;;;5117115;28;20411;-78
2024/03/24 12:09:22;;;;;;;3.40;1.70;;;10.90;99.90;;;;;;5116606;28;20287;-78
2024/03/24 12:11:54;;;;;;;2.67;1.70;;;11.00;99.90;;;;;;5118767;28;20402;-78
2024/03/24 12:14:22;;;;;;;3.10;1.97;;;10.80;99.90;;;;;;5118092;28;20415;-79
2024/03/24 12:16:48;;;;;;;5.13;2.10;;;10.60;99.90;;;;;;5118332;28;20398;-77
2024/03/24 12:19:14;;;;;;;4.70;2.20;;;10.20;99.90;;;;;;5117199;28;20466;-78
2024/03/24 12:21:41;;;;;;;6.17;1.73;;;9.80;99.90;;;;;;5117202;28;20169;-78
2024/03/24 12:24:07;;;;;;;3.60;1.57;;;9.80;99.90;;;;;;5115650;28;20417;-77
2024/03/24 12:26:33;;;;;;;2.97;1.93;;;9.80;99.90;;;;;;5117051;28;20403;-76
2024/03/24 12:28:58;;;;;;;1.90;1.40;;;9.70;99.90;;;;;;5116063;28;20457;-77
2024/03/24 12:31:25;;;;;;;6.17;2.47;;;9.50;99.90;;;;;;5115480;28;20823;-78
2024/03/24 12:33:52;;;;;;;2.83;1.80;;;9.70;99.90;;;;;;5115080;28;20255;-78
2024/03/24 12:36:18;;;;;;;4.33;1.47;;;9.70;99.90;;;;;;5115852;28;20399;-77
2024/03/24 12:38:44;;;;;;;5.13;2.00;;;9.30;99.90;;;;;;5114664;28;20439;-78
2024/03/24 12:41:23;;;;;;;2.43;2.03;;;9.10;99.90;;;;;;5116140;28;20172;-77
2024/03/24 12:43:56;;;;;;;4.20;1.77;;;9.10;99.90;;;;;;5116004;28;20455;-77
2024/03/24 12:46:31;;;;;;;4.27;1.80;;;9.20;99.90;;;;;;5116188;28;20392;-77
2024/03/24 12:49:15;;;;;;;2.90;1.97;;;9.30;99.90;;;;;;5116160;28;20482;-77
2024/03/24 12:51:41;;;;;;;3.33;1.70;;;9.20;99.90;;;;;;5115483;28;20406;-76